sensor_id;sensor_type;location;lat;lon;timestamp;temperature;humidity
20827;DHT22;10574;52.508;13.236;2023-02-01T00:00:41;4.60;99.90
20827;DHT22;10574;52.508;13.236;2023-02-01T00:03:09;4.60;99.90
20827;DHT22;10574;52.508;13.236;2023-02-01T00:05:37;4.60;99.90
20827;DHT22;10574;52.508;13.236;2023-02-01T00:08:05;4.60;99.90
20827;DHT22;10574;52.508;13.236;2023-02-01T00:10:33;4.60;99.90
20827;DHT22;10574;52.508;13.236;2023-02-01T00:13:01;4.70;99.90
20827;DHT22;10574;52.508;13.236;2023-02-01T00:15:28;4.70;99.90
20827;DHT22;10574;52.508;13.236;2023-02-01T00:17:56;4.80;99.90
20827;DHT22;10574;52.508;13.236;2023-02-01T00:20:23;4.70;99.90
20827;DHT22;10574;52.508;13.236;2023-02-01T00:22:51;4.70;99.90
20827;DHT22;10574;52.508;13.236;2023-02-01T00:25:18;4.70;99.90
20827;DHT22;10574;52.508;13.236;2023-02-01T00:27:50;4.70;99.90
20827;DHT22;10574;52.508;13.236;2023-02-01T00:30:18;4.70;99.90
20827;DHT22;10574;52.508;13.236;2023-02-01T00:32:46;4.70;99.90
20827;DHT22;10574;52.508;13.236;2023-02-01T00:35:13;4.70;99.90
20827;DHT22;10574;52.508;13.236;2023-02-01T00:37:41;4.70;99.90
20827;DHT22;10574;52.508;13.236;2023-02-01T00:40:09;4.60;99.90
20827;DHT22;10574;52.508;13.236;2023-02-01T00:42:37;4.60;99.90
20827;DHT22;10574;52.508;13.236;2023-02-01T00:45:05;4.50;99.90
20827;DHT22;10574;52.508;13.236;2023-02-01T00:47:33;4.50;99.90
20827;DHT22;10574;52.508;13.236;2023-02-01T00:50:00;4.40;99.90
20827;DHT22;10574;52.508;13.236;2023-02-01T00:52:28;4.30;99.90
20827;DHT22;10574;52.508;13.236;2023-02-01T00:54:56;4.30;99.90
20827;DHT22;10574;52.508;13.236;2023-02-01T00:57:23;4.30;99.90
20827;DHT22;10574;52.508;13.236;2023-02-01T00:59:51;4.20;99.90
20827;DHT22;10574;52.508;13.236;2023-02-01T01:02:18;4.20;99.90
20827;DHT22;10574;52.508;13.236;2023-02-01T01:04:46;4.20;99.90
20827;DHT22;10574;52.508;13.236;2023-02-01T01:07:14;4.10;99.90
20827;DHT22;10574;52.508;13.236;2023-02-01T01:09:41;4.10;99.90
20827;DHT22;10574;52.508;13.236;2023-02-01T01:12:09;4.10;99.90
20827;DHT22;10574;52.508;13.236;2023-02-01T01:14:37;4.10;99.90
20827;DHT22;10574;52.508;13.236;2023-02-01T01:17:05;4.00;99.90
20827;DHT22;10574;52.508;13.236;2023-02-01T01:19:32;4.00;99.90
20827;DHT22;10574;52.508;13.236;2023-02-01T01:22:00;4.00;99.90
20827;DHT22;10574;52.508;13.236;2023-02-01T01:24:27;4.10;99.90
20827;DHT22;10574;52.508;13.236;2023-02-01T01:26:55;4.10;99.90
20827;DHT22;10574;52.508;13.236;2023-02-01T01:29:23;4.10;99.90
20827;DHT22;10574;52.508;13.236;2023-02-01T01:31:50;4.10;99.90
20827;DHT22;10574;52.508;13.236;2023-02-01T01:34:18;4.00;99.90
20827;DHT22;10574;52.508;13.236;2023-02-01T01:36:46;4.10;99.90
20827;DHT22;10574;52.508;13.236;2023-02-01T01:39:13;4.10;99.90
20827;DHT22;10574;52.508;13.236;2023-02-01T01:41:41;4.20;99.90
20827;DHT22;10574;52.508;13.236;2023-02-01T01:46:55;4.20;99.90
20827;DHT22;10574;52.508;13.236;2023-02-01T01:49:24;4.20;99.90
20827;DHT22;10574;52.508;13.236;2023-02-01T01:51:55;4.20;99.90
20827;DHT22;10574;52.508;13.236;2023-02-01T01:54:35;4.30;99.90
20827;DHT22;10574;52.508;13.236;2023-02-01T01:56:57;4.30;99.90
20827;DHT22;10574;52.508;13.236;2023-02-01T01:59:24;4.30;99.90
20827;DHT22;10574;52.508;13.236;2023-02-01T02:01:53;4.30;99.90
20827;DHT22;10574;52.508;13.236;2023-02-01T02:04:20;4.30;99.90
20827;DHT22;10574;52.508;13.236;2023-02-01T02:06:51;4.30;99.90
20827;DHT22;10574;52.508;13.236;2023-02-01T02:09:19;4.40;99.90
20827;DHT22;10574;52.508;13.236;2023-02-01T02:11:47;4.40;99.90
20827;DHT22;10574;52.508;13.236;2023-02-01T02:14:17;4.40;99.90
20827;DHT22;10574;52.508;13.236;2023-02-01T02:19:48;4.30;99.90
20827;DHT22;10574;52.508;13.236;2023-02-01T02:25:29;4.40;99.90
20827;DHT22;10574;52.508;13.236;2023-02-01T02:33:21;4.30;99.90
20827;DHT22;10574;52.508;13.236;2023-02-01T02:35:56;4.30;99.90
20827;DHT22;10574;52.508;13.236;2023-02-01T02:38:30;4.40;99.90
20827;DHT22;10574;52.508;13.236;2023-02-01T02:41:16;4.40;99.90
20827;DHT22;10574;52.508;13.236;2023-02-01T02:43:45;4.40;99.90
20827;DHT22;10574;52.508;13.236;2023-02-01T02:46:36;4.40;99.90
20827;DHT22;10574;52.508;13.236;2023-02-01T02:52:09;4.30;99.90
20827;DHT22;10574;52.508;13.236;2023-02-01T02:54:54;4.30;99.90
20827;DHT22;10574;52.508;13.236;2023-02-01T02:57:29;4.30;99.90
20827;DHT22;10574;52.508;13.236;2023-02-01T03:00:20;4.30;99.90
20827;DHT22;10574;52.508;13.236;2023-02-01T03:03:06;4.40;99.90
20827;DHT22;10574;52.508;13.236;2023-02-01T03:05:52;4.40;99.90
20827;DHT22;10574;52.508;13.236;2023-02-01T03:08:25;4.40;99.90
20827;DHT22;10574;52.508;13.236;2023-02-01T03:11:04;4.40;99.90
20827;DHT22;10574;52.508;13.236;2023-02-01T03:13:48;4.40;99.90
20827;DHT22;10574;52.508;13.236;2023-02-01T03:16:26;4.50;99.90
20827;DHT22;10574;52.508;13.236;2023-02-01T03:19:14;4.50;99.90
20827;DHT22;10574;52.508;13.236;2023-02-01T03:21:57;4.50;99.90
20827;DHT22;10574;52.508;13.236;2023-02-01T03:24:41;4.50;99.90
20827;DHT22;10574;52.508;13.236;2023-02-01T03:32:25;4.50;99.90
20827;DHT22;10574;52.508;13.236;2023-02-01T03:34:53;4.50;99.90
20827;DHT22;10574;52.508;13.236;2023-02-01T03:37:26;4.50;99.90
20827;DHT22;10574;52.508;13.236;2023-02-01T03:40:06;4.50;99.90
20827;DHT22;10574;52.508;13.236;2023-02-01T03:42:48;4.50;99.90
20827;DHT22;10574;52.508;13.236;2023-02-01T03:45:19;4.50;99.90
20827;DHT22;10574;52.508;13.236;2023-02-01T03:47:49;4.60;99.90
20827;DHT22;10574;52.508;13.236;2023-02-01T03:50:19;4.50;99.90
20827;DHT22;10574;52.508;13.236;2023-02-01T03:52:52;4.60;99.90
20827;DHT22;10574;52.508;13.236;2023-02-01T03:55:22;4.60;99.90
20827;DHT22;10574;52.508;13.236;2023-02-01T03:57:58;4.70;99.90
20827;DHT22;10574;52.508;13.236;2023-02-01T04:00:25;4.70;99.90
20827;DHT22;10574;52.508;13.236;2023-02-01T04:02:54;4.70;99.90
20827;DHT22;10574;52.508;13.236;2023-02-01T04:05:22;4.70;99.90
20827;DHT22;10574;52.508;13.236;2023-02-01T04:07:50;4.70;99.90
20827;DHT22;10574;52.508;13.236;2023-02-01T04:10:17;4.70;99.90
20827;DHT22;10574;52.508;13.236;2023-02-01T04:12:45;4.70;99.90
20827;DHT22;10574;52.508;13.236;2023-02-01T04:15:13;4.70;99.90
20827;DHT22;10574;52.508;13.236;2023-02-01T04:17:41;4.80;99.90
20827;DHT22;10574;52.508;13.236;2023-02-01T04:20:09;4.80;99.90
20827;DHT22;10574;52.508;13.236;2023-02-01T04:22:37;4.90;99.90
20827;DHT22;10574;52.508;13.236;2023-02-01T04:25:05;4.90;99.90
20827;DHT22;10574;52.508;13.236;2023-02-01T04:27:34;4.90;99.90
20827;DHT22;10574;52.508;13.236;2023-02-01T04:30:03;4.90;99.90
20827;DHT22;10574;52.508;13.236;2023-02-01T04:32:31;4.90;99.90
20827;DHT22;10574;52.508;13.236;2023-02-01T04:34:58;5.00;99.90
20827;DHT22;10574;52.508;13.236;2023-02-01T04:37:26;5.00;99.90
20827;DHT22;10574;52.508;13.236;2023-02-01T04:39:55;5.10;99.90
20827;DHT22;10574;52.508;13.236;2023-02-01T04:42:23;5.10;99.90
20827;DHT22;10574;52.508;13.236;2023-02-01T04:44:50;5.10;99.90
20827;DHT22;10574;52.508;13.236;2023-02-01T04:47:18;5.10;99.90
20827;DHT22;10574;52.508;13.236;2023-02-01T04:49:47;5.20;99.90
20827;DHT22;10574;52.508;13.236;2023-02-01T04:52:14;5.10;99.90
20827;DHT22;10574;52.508;13.236;2023-02-01T04:54:42;5.10;99.90
20827;DHT22;10574;52.508;13.236;2023-02-01T04:57:09;5.20;99.90
20827;DHT22;10574;52.508;13.236;2023-02-01T04:59:39;5.20;99.90
20827;DHT22;10574;52.508;13.236;2023-02-01T05:02:07;5.20;99.90
20827;DHT22;10574;52.508;13.236;2023-02-01T05:04:35;5.20;99.90
20827;DHT22;10574;52.508;13.236;2023-02-01T05:07:03;5.20;99.90
20827;DHT22;10574;52.508;13.236;2023-02-01T05:09:30;5.30;99.90
20827;DHT22;10574;52.508;13.236;2023-02-01T05:11:58;5.30;99.90
20827;DHT22;10574;52.508;13.236;2023-02-01T05:14:44;5.20;99.90
20827;DHT22;10574;52.508;13.236;2023-02-01T05:17:11;5.20;99.90
20827;DHT22;10574;52.508;13.236;2023-02-01T05:19:39;5.20;99.90
20827;DHT22;10574;52.508;13.236;2023-02-01T05:22:06;5.20;99.90
20827;DHT22;10574;52.508;13.236;2023-02-01T05:24:34;5.30;99.90
20827;DHT22;10574;52.508;13.236;2023-02-01T05:27:02;5.30;99.90
20827;DHT22;10574;52.508;13.236;2023-02-01T05:29:29;5.20;99.90
20827;DHT22;10574;52.508;13.236;2023-02-01T05:31:57;5.30;99.90
20827;DHT22;10574;52.508;13.236;2023-02-01T05:34:24;5.30;99.90
20827;DHT22;10574;52.508;13.236;2023-02-01T05:36:52;5.30;99.90
20827;DHT22;10574;52.508;13.236;2023-02-01T05:39:20;5.20;99.90
20827;DHT22;10574;52.508;13.236;2023-02-01T05:41:48;5.20;99.90
20827;DHT22;10574;52.508;13.236;2023-02-01T05:44:15;5.20;99.90
20827;DHT22;10574;52.508;13.236;2023-02-01T05:46:43;5.30;99.90
20827;DHT22;10574;52.508;13.236;2023-02-01T05:49:11;5.20;99.90
20827;DHT22;10574;52.508;13.236;2023-02-01T05:51:38;5.20;99.90
20827;DHT22;10574;52.508;13.236;2023-02-01T05:54:07;5.30;99.90
20827;DHT22;10574;52.508;13.236;2023-02-01T05:56:35;5.30;99.90
20827;DHT22;10574;52.508;13.236;2023-02-01T05:59:02;5.30;99.90
20827;DHT22;10574;52.508;13.236;2023-02-01T06:01:30;5.30;99.90
20827;DHT22;10574;52.508;13.236;2023-02-01T06:03:58;5.30;99.90
20827;DHT22;10574;52.508;13.236;2023-02-01T06:06:25;5.30;99.90
20827;DHT22;10574;52.508;13.236;2023-02-01T06:08:53;5.30;99.90
20827;DHT22;10574;52.508;13.236;2023-02-01T06:11:21;5.20;99.90
20827;DHT22;10574;52.508;13.236;2023-02-01T06:13:48;5.20;99.90
20827;DHT22;10574;52.508;13.236;2023-02-01T06:16:16;5.10;99.90
20827;DHT22;10574;52.508;13.236;2023-02-01T06:18:43;5.10;99.90
20827;DHT22;10574;52.508;13.236;2023-02-01T06:21:11;5.10;99.90
20827;DHT22;10574;52.508;13.236;2023-02-01T06:23:40;5.10;99.90
20827;DHT22;10574;52.508;13.236;2023-02-01T06:26:09;5.10;99.90
20827;DHT22;10574;52.508;13.236;2023-02-01T06:28:36;5.10;99.90
20827;DHT22;10574;52.508;13.236;2023-02-01T06:31:06;5.10;99.90
20827;DHT22;10574;52.508;13.236;2023-02-01T06:33:34;5.10;99.90
20827;DHT22;10574;52.508;13.236;2023-02-01T06:36:04;5.00;99.90
20827;DHT22;10574;52.508;13.236;2023-02-01T06:38:33;5.00;99.90
20827;DHT22;10574;52.508;13.236;2023-02-01T06:41:05;5.00;99.90
20827;DHT22;10574;52.508;13.236;2023-02-01T06:43:33;5.00;99.90
20827;DHT22;10574;52.508;13.236;2023-02-01T06:46:02;5.00;99.90
20827;DHT22;10574;52.508;13.236;2023-02-01T06:48:30;5.00;99.90
20827;DHT22;10574;52.508;13.236;2023-02-01T06:50:58;5.00;99.90
20827;DHT22;10574;52.508;13.236;2023-02-01T06:53:26;5.00;99.90
20827;DHT22;10574;52.508;13.236;2023-02-01T06:56:02;5.00;99.90
20827;DHT22;10574;52.508;13.236;2023-02-01T06:58:31;5.10;99.90
20827;DHT22;10574;52.508;13.236;2023-02-01T07:01:07;5.10;99.90
20827;DHT22;10574;52.508;13.236;2023-02-01T07:03:35;5.10;99.90
20827;DHT22;10574;52.508;13.236;2023-02-01T07:06:03;5.10;99.90
20827;DHT22;10574;52.508;13.236;2023-02-01T07:08:32;5.10;99.90
20827;DHT22;10574;52.508;13.236;2023-02-01T07:11:05;5.10;99.90
20827;DHT22;10574;52.508;13.236;2023-02-01T07:13:33;5.10;99.90
20827;DHT22;10574;52.508;13.236;2023-02-01T07:16:03;5.10;99.90
20827;DHT22;10574;52.508;13.236;2023-02-01T07:18:31;5.00;99.90
20827;DHT22;10574;52.508;13.236;2023-02-01T07:20:59;5.00;99.90
20827;DHT22;10574;52.508;13.236;2023-02-01T07:23:28;4.90;99.90
20827;DHT22;10574;52.508;13.236;2023-02-01T07:26:01;5.00;99.90
20827;DHT22;10574;52.508;13.236;2023-02-01T07:28:31;5.00;99.90
20827;DHT22;10574;52.508;13.236;2023-02-01T07:31:07;5.00;99.90
20827;DHT22;10574;52.508;13.236;2023-02-01T07:33:35;5.00;99.90
20827;DHT22;10574;52.508;13.236;2023-02-01T07:36:04;5.00;99.90
20827;DHT22;10574;52.508;13.236;2023-02-01T07:38:33;5.00;99.90
20827;DHT22;10574;52.508;13.236;2023-02-01T07:41:02;5.00;99.90
20827;DHT22;10574;52.508;13.236;2023-02-01T07:43:30;5.00;99.90
20827;DHT22;10574;52.508;13.236;2023-02-01T07:46:00;4.90;99.90
20827;DHT22;10574;52.508;13.236;2023-02-01T07:48:28;4.80;99.90
20827;DHT22;10574;52.508;13.236;2023-02-01T07:51:05;4.70;99.90
20827;DHT22;10574;52.508;13.236;2023-02-01T07:53:34;4.60;99.90
20827;DHT22;10574;52.508;13.236;2023-02-01T07:56:03;4.50;99.90
20827;DHT22;10574;52.508;13.236;2023-02-01T07:58:31;4.40;99.90
20827;DHT22;10574;52.508;13.236;2023-02-01T08:00:58;4.40;99.90
20827;DHT22;10574;52.508;13.236;2023-02-01T08:03:44;4.40;99.90
20827;DHT22;10574;52.508;13.236;2023-02-01T08:06:12;4.40;99.90
20827;DHT22;10574;52.508;13.236;2023-02-01T08:08:39;4.30;99.90
20827;DHT22;10574;52.508;13.236;2023-02-01T08:11:07;4.30;99.90
20827;DHT22;10574;52.508;13.236;2023-02-01T08:13:35;4.30;99.90
20827;DHT22;10574;52.508;13.236;2023-02-01T08:16:05;4.20;99.90
20827;DHT22;10574;52.508;13.236;2023-02-01T08:18:34;4.20;99.90
20827;DHT22;10574;52.508;13.236;2023-02-01T08:21:12;4.10;99.90
20827;DHT22;10574;52.508;13.236;2023-02-01T08:23:41;4.10;99.90
20827;DHT22;10574;52.508;13.236;2023-02-01T08:26:19;4.10;99.90
20827;DHT22;10574;52.508;13.236;2023-02-01T08:28:45;4.20;99.90
20827;DHT22;10574;52.508;13.236;2023-02-01T08:31:14;4.10;99.90
20827;DHT22;10574;52.508;13.236;2023-02-01T08:33:43;4.10;99.90
20827;DHT22;10574;52.508;13.236;2023-02-01T08:36:11;4.10;99.90
20827;DHT22;10574;52.508;13.236;2023-02-01T08:38:39;4.10;99.90
20827;DHT22;10574;52.508;13.236;2023-02-01T08:41:09;4.20;99.90
20827;DHT22;10574;52.508;13.236;2023-02-01T08:43:38;4.20;99.90
20827;DHT22;10574;52.508;13.236;2023-02-01T08:46:06;4.20;99.90
20827;DHT22;10574;52.508;13.236;2023-02-01T08:48:34;4.20;99.90
20827;DHT22;10574;52.508;13.236;2023-02-01T08:51:04;4.20;99.90
20827;DHT22;10574;52.508;13.236;2023-02-01T08:53:32;4.20;99.90
20827;DHT22;10574;52.508;13.236;2023-02-01T08:56:00;4.20;99.90
20827;DHT22;10574;52.508;13.236;2023-02-01T08:58:28;4.20;99.90
20827;DHT22;10574;52.508;13.236;2023-02-01T09:00:55;4.20;99.90
20827;DHT22;10574;52.508;13.236;2023-02-01T09:03:23;4.20;99.90
20827;DHT22;10574;52.508;13.236;2023-02-01T09:05:51;4.20;99.90
20827;DHT22;10574;52.508;13.236;2023-02-01T09:08:18;4.20;99.90
20827;DHT22;10574;52.508;13.236;2023-02-01T09:10:46;4.20;99.90
20827;DHT22;10574;52.508;13.236;2023-02-01T09:13:14;4.20;99.90
20827;DHT22;10574;52.508;13.236;2023-02-01T09:15:41;4.30;99.90
20827;DHT22;10574;52.508;13.236;2023-02-01T09:18:09;4.30;99.90
20827;DHT22;10574;52.508;13.236;2023-02-01T09:20:37;4.30;99.90
20827;DHT22;10574;52.508;13.236;2023-02-01T09:23:05;4.30;99.90
20827;DHT22;10574;52.508;13.236;2023-02-01T09:25:33;4.30;99.90
20827;DHT22;10574;52.508;13.236;2023-02-01T09:28:01;4.40;99.90
20827;DHT22;10574;52.508;13.236;2023-02-01T09:30:30;4.30;99.90
20827;DHT22;10574;52.508;13.236;2023-02-01T09:32:58;4.30;99.90
20827;DHT22;10574;52.508;13.236;2023-02-01T09:35:25;4.40;99.90
20827;DHT22;10574;52.508;13.236;2023-02-01T09:37:53;4.40;99.90
20827;DHT22;10574;52.508;13.236;2023-02-01T09:40:22;4.40;99.90
20827;DHT22;10574;52.508;13.236;2023-02-01T09:43:04;4.40;99.90
20827;DHT22;10574;52.508;13.236;2023-02-01T09:45:46;4.40;99.90
20827;DHT22;10574;52.508;13.236;2023-02-01T09:48:20;4.40;99.90
20827;DHT22;10574;52.508;13.236;2023-02-01T09:50:53;4.40;99.90
20827;DHT22;10574;52.508;13.236;2023-02-01T09:53:37;4.40;99.90
20827;DHT22;10574;52.508;13.236;2023-02-01T09:56:09;4.40;99.90
20827;DHT22;10574;52.508;13.236;2023-02-01T09:58:44;4.40;99.90
20827;DHT22;10574;52.508;13.236;2023-02-01T10:01:20;4.50;99.90
20827;DHT22;10574;52.508;13.236;2023-02-01T10:03:52;4.50;99.90
20827;DHT22;10574;52.508;13.236;2023-02-01T10:07:34;4.50;99.90
20827;DHT22;10574;52.508;13.236;2023-02-01T10:14:49;4.40;99.90
20827;DHT22;10574;52.508;13.236;2023-02-01T10:22:46;4.50;99.90
20827;DHT22;10574;52.508;13.236;2023-02-01T10:25:22;4.60;99.90
20827;DHT22;10574;52.508;13.236;2023-02-01T10:27:47;4.60;99.90
20827;DHT22;10574;52.508;13.236;2023-02-01T10:30:24;4.60;99.90
20827;DHT22;10574;52.508;13.236;2023-02-01T10:33:01;4.70;99.90
20827;DHT22;10574;52.508;13.236;2023-02-01T10:35:31;4.80;99.90
20827;DHT22;10574;52.508;13.236;2023-02-01T10:38:00;4.70;99.90
20827;DHT22;10574;52.508;13.236;2023-02-01T10:40:29;4.70;99.90
20827;DHT22;10574;52.508;13.236;2023-02-01T10:42:59;4.60;99.90
20827;DHT22;10574;52.508;13.236;2023-02-01T10:45:30;4.60;99.90
20827;DHT22;10574;52.508;13.236;2023-02-01T10:47:59;4.50;99.90
20827;DHT22;10574;52.508;13.236;2023-02-01T10:53:25;4.50;99.90
20827;DHT22;10574;52.508;13.236;2023-02-01T10:55:54;4.50;99.90
20827;DHT22;10574;52.508;13.236;2023-02-01T10:58:31;4.50;99.90
20827;DHT22;10574;52.508;13.236;2023-02-01T11:01:04;4.50;99.90
20827;DHT22;10574;52.508;13.236;2023-02-01T11:03:44;4.60;99.90
20827;DHT22;10574;52.508;13.236;2023-02-01T11:06:30;4.60;99.90
20827;DHT22;10574;52.508;13.236;2023-02-01T11:14:20;4.80;99.90
20827;DHT22;10574;52.508;13.236;2023-02-01T11:16:57;4.80;99.90
20827;DHT22;10574;52.508;13.236;2023-02-01T11:19:24;4.90;99.90
20827;DHT22;10574;52.508;13.236;2023-02-01T11:21:53;5.00;99.90
20827;DHT22;10574;52.508;13.236;2023-02-01T11:24:31;5.00;99.90
20827;DHT22;10574;52.508;13.236;2023-02-01T11:26:56;5.10;99.90
20827;DHT22;10574;52.508;13.236;2023-02-01T11:29:26;5.30;99.90
20827;DHT22;10574;52.508;13.236;2023-02-01T11:31:57;5.40;99.90
20827;DHT22;10574;52.508;13.236;2023-02-01T11:34:46;5.50;99.90
20827;DHT22;10574;52.508;13.236;2023-02-01T11:37:20;5.60;99.90
20827;DHT22;10574;52.508;13.236;2023-02-01T11:39:59;5.70;99.90
20827;DHT22;10574;52.508;13.236;2023-02-01T11:42:28;5.70;99.90
20827;DHT22;10574;52.508;13.236;2023-02-01T11:45:20;5.80;99.90
20827;DHT22;10574;52.508;13.236;2023-02-01T11:47:53;5.80;99.90
20827;DHT22;10574;52.508;13.236;2023-02-01T11:50:46;5.90;99.90
20827;DHT22;10574;52.508;13.236;2023-02-01T11:53:32;6.00;99.90
20827;DHT22;10574;52.508;13.236;2023-02-01T11:56:05;6.10;99.90
20827;DHT22;10574;52.508;13.236;2023-02-01T11:59:25;6.00;99.90
20827;DHT22;10574;52.508;13.236;2023-02-01T12:06:58;6.30;99.90
20827;DHT22;10574;52.508;13.236;2023-02-01T12:09:42;6.40;99.90
20827;DHT22;10574;52.508;13.236;2023-02-01T12:12:22;6.40;99.90
20827;DHT22;10574;52.508;13.236;2023-02-01T12:34:54;6.30;99.90
20827;DHT22;10574;52.508;13.236;2023-02-01T12:42:58;6.40;99.90
20827;DHT22;10574;52.508;13.236;2023-02-01T12:45:36;6.40;99.90
20827;DHT22;10574;52.508;13.236;2023-02-01T12:48:19;6.50;99.90
20827;DHT22;10574;52.508;13.236;2023-02-01T12:50:52;6.40;99.90
20827;DHT22;10574;52.508;13.236;2023-02-01T12:53:24;6.40;99.90
20827;DHT22;10574;52.508;13.236;2023-02-01T12:55:54;6.50;99.90
20827;DHT22;10574;52.508;13.236;2023-02-01T12:58:38;6.40;99.90
20827;DHT22;10574;52.508;13.236;2023-02-01T13:01:07;6.50;99.90
20827;DHT22;10574;52.508;13.236;2023-02-01T13:06:36;6.50;99.90
20827;DHT22;10574;52.508;13.236;2023-02-01T13:11:42;6.50;99.90
20827;DHT22;10574;52.508;13.236;2023-02-01T13:14:46;6.60;99.90
20827;DHT22;10574;52.508;13.236;2023-02-01T13:17:23;6.50;99.90
20827;DHT22;10574;52.508;13.236;2023-02-01T13:20:03;6.50;99.90
20827;DHT22;10574;52.508;13.236;2023-02-01T13:22:37;6.40;99.90
20827;DHT22;10574;52.508;13.236;2023-02-01T13:25:19;6.40;99.90
20827;DHT22;10574;52.508;13.236;2023-02-01T13:27:45;6.40;99.90
20827;DHT22;10574;52.508;13.236;2023-02-01T13:30:26;6.40;99.90
20827;DHT22;10574;52.508;13.236;2023-02-01T13:36:07;6.50;99.90
20827;DHT22;10574;52.508;13.236;2023-02-01T13:44:04;6.50;99.90
20827;DHT22;10574;52.508;13.236;2023-02-01T13:46:45;6.50;99.90
20827;DHT22;10574;52.508;13.236;2023-02-01T13:49:25;6.50;99.90
20827;DHT22;10574;52.508;13.236;2023-02-01T13:51:53;6.60;99.90
20827;DHT22;10574;52.508;13.236;2023-02-01T13:54:24;6.50;99.90
20827;DHT22;10574;52.508;13.236;2023-02-01T13:56:53;6.50;99.90
20827;DHT22;10574;52.508;13.236;2023-02-01T14:05:11;6.60;99.90
20827;DHT22;10574;52.508;13.236;2023-02-01T14:10:48;6.30;99.90
20827;DHT22;10574;52.508;13.236;2023-02-01T14:13:38;6.30;99.90
20827;DHT22;10574;52.508;13.236;2023-02-01T14:16:17;6.20;99.90
20827;DHT22;10574;52.508;13.236;2023-02-01T14:18:48;6.10;99.90
20827;DHT22;10574;52.508;13.236;2023-02-01T14:21:33;6.10;99.90
20827;DHT22;10574;52.508;13.236;2023-02-01T14:24:01;6.10;99.90
20827;DHT22;10574;52.508;13.236;2023-02-01T14:48:38;6.20;99.90
20827;DHT22;10574;52.508;13.236;2023-02-01T15:01:32;6.20;99.90
20827;DHT22;10574;52.508;13.236;2023-02-01T15:04:14;6.20;99.90
20827;DHT22;10574;52.508;13.236;2023-02-01T15:06:56;6.10;99.90
20827;DHT22;10574;52.508;13.236;2023-02-01T15:12:15;5.60;99.90
20827;DHT22;10574;52.508;13.236;2023-02-01T15:17:40;5.20;99.90
20827;DHT22;10574;52.508;13.236;2023-02-01T15:20:23;5.10;99.90
20827;DHT22;10574;52.508;13.236;2023-02-01T15:23:05;5.00;99.90
20827;DHT22;10574;52.508;13.236;2023-02-01T15:25:36;4.90;99.90
20827;DHT22;10574;52.508;13.236;2023-02-01T15:28:05;4.80;99.90
20827;DHT22;10574;52.508;13.236;2023-02-01T15:30:35;4.70;99.90
20827;DHT22;10574;52.508;13.236;2023-02-01T15:33:17;4.60;99.90
20827;DHT22;10574;52.508;13.236;2023-02-01T15:35:47;4.40;99.90
20827;DHT22;10574;52.508;13.236;2023-02-01T15:44:02;4.10;99.90
20827;DHT22;10574;52.508;13.236;2023-02-01T15:46:30;4.10;99.90
20827;DHT22;10574;52.508;13.236;2023-02-01T15:48:53;4.10;99.90
20827;DHT22;10574;52.508;13.236;2023-02-01T15:51:28;4.10;99.90
20827;DHT22;10574;52.508;13.236;2023-02-01T15:53:57;4.10;99.90
20827;DHT22;10574;52.508;13.236;2023-02-01T15:56:27;4.00;99.90
20827;DHT22;10574;52.508;13.236;2023-02-01T15:58:59;3.90;99.90
20827;DHT22;10574;52.508;13.236;2023-02-01T16:01:28;3.70;99.90
20827;DHT22;10574;52.508;13.236;2023-02-01T16:04:09;3.60;99.90
20827;DHT22;10574;52.508;13.236;2023-02-01T16:06:33;3.50;99.90
20827;DHT22;10574;52.508;13.236;2023-02-01T16:09:08;3.30;99.90
20827;DHT22;10574;52.508;13.236;2023-02-01T16:11:39;3.10;99.90
20827;DHT22;10574;52.508;13.236;2023-02-01T16:14:02;2.80;99.90
20827;DHT22;10574;52.508;13.236;2023-02-01T16:16:30;2.70;99.90
20827;DHT22;10574;52.508;13.236;2023-02-01T16:18:57;2.60;99.90
20827;DHT22;10574;52.508;13.236;2023-02-01T16:21:25;2.60;99.90
20827;DHT22;10574;52.508;13.236;2023-02-01T16:23:53;2.60;99.90
20827;DHT22;10574;52.508;13.236;2023-02-01T16:26:20;2.60;99.90
20827;DHT22;10574;52.508;13.236;2023-02-01T16:28:48;2.60;99.90
20827;DHT22;10574;52.508;13.236;2023-02-01T16:31:17;2.60;99.90
20827;DHT22;10574;52.508;13.236;2023-02-01T16:33:51;2.70;99.90
20827;DHT22;10574;52.508;13.236;2023-02-01T16:36:19;2.70;99.90
20827;DHT22;10574;52.508;13.236;2023-02-01T16:38:48;2.70;99.90
20827;DHT22;10574;52.508;13.236;2023-02-01T16:41:18;2.80;99.90
20827;DHT22;10574;52.508;13.236;2023-02-01T16:43:48;2.80;99.90
20827;DHT22;10574;52.508;13.236;2023-02-01T16:46:17;2.80;99.90
20827;DHT22;10574;52.508;13.236;2023-02-01T16:48:50;2.80;99.90
20827;DHT22;10574;52.508;13.236;2023-02-01T16:51:17;2.90;99.90
20827;DHT22;10574;52.508;13.236;2023-02-01T16:53:45;2.90;99.90
20827;DHT22;10574;52.508;13.236;2023-02-01T16:56:18;2.90;99.90
20827;DHT22;10574;52.508;13.236;2023-02-01T16:58:47;3.00;99.90
20827;DHT22;10574;52.508;13.236;2023-02-01T17:01:17;3.00;99.90
20827;DHT22;10574;52.508;13.236;2023-02-01T17:03:45;3.10;99.90
20827;DHT22;10574;52.508;13.236;2023-02-01T17:06:15;3.10;99.90
20827;DHT22;10574;52.508;13.236;2023-02-01T17:08:46;3.10;99.90
20827;DHT22;10574;52.508;13.236;2023-02-01T17:11:14;3.10;99.90
20827;DHT22;10574;52.508;13.236;2023-02-01T17:13:42;3.10;99.90
20827;DHT22;10574;52.508;13.236;2023-02-01T17:18:47;3.20;99.90
20827;DHT22;10574;52.508;13.236;2023-02-01T17:21:15;3.30;99.90
20827;DHT22;10574;52.508;13.236;2023-02-01T17:23:43;3.30;99.90
20827;DHT22;10574;52.508;13.236;2023-02-01T17:26:12;3.40;99.90
20827;DHT22;10574;52.508;13.236;2023-02-01T17:28:39;3.40;99.90
20827;DHT22;10574;52.508;13.236;2023-02-01T17:31:08;3.50;99.90
20827;DHT22;10574;52.508;13.236;2023-02-01T17:33:37;3.50;99.90
20827;DHT22;10574;52.508;13.236;2023-02-01T17:36:05;3.50;99.90
20827;DHT22;10574;52.508;13.236;2023-02-01T17:38:33;3.60;99.90
20827;DHT22;10574;52.508;13.236;2023-02-01T17:41:01;3.60;99.90
20827;DHT22;10574;52.508;13.236;2023-02-01T17:43:29;3.70;99.90
20827;DHT22;10574;52.508;13.236;2023-02-01T17:46:16;3.70;99.90
20827;DHT22;10574;52.508;13.236;2023-02-01T17:48:48;3.70;99.90
20827;DHT22;10574;52.508;13.236;2023-02-01T17:51:19;3.80;99.90
20827;DHT22;10574;52.508;13.236;2023-02-01T17:53:47;3.80;99.90
20827;DHT22;10574;52.508;13.236;2023-02-01T17:56:20;3.80;99.90
20827;DHT22;10574;52.508;13.236;2023-02-01T17:58:48;3.80;99.90
20827;DHT22;10574;52.508;13.236;2023-02-01T18:01:18;3.80;99.90
20827;DHT22;10574;52.508;13.236;2023-02-01T18:03:47;3.80;99.90
20827;DHT22;10574;52.508;13.236;2023-02-01T18:06:17;3.80;99.90
20827;DHT22;10574;52.508;13.236;2023-02-01T18:08:45;3.80;99.90
20827;DHT22;10574;52.508;13.236;2023-02-01T18:11:15;3.80;99.90
20827;DHT22;10574;52.508;13.236;2023-02-01T18:13:43;3.90;99.90
20827;DHT22;10574;52.508;13.236;2023-02-01T18:16:26;4.00;99.90